createdAt,value
2022-12-24T00:01:39.405Z,8.32
2022-12-24T00:04:08.510Z,11.60
2022-12-24T00:06:37.523Z,10.23
2022-12-24T00:09:07.880Z,8.00
2022-12-24T00:11:41.913Z,12.00
2022-12-24T00:14:10.926Z,9.00
2022-12-24T00:16:40.005Z,10.07
2022-12-24T00:19:09.068Z,12.93
2022-12-24T00:21:38.101Z,10.60
2022-12-24T00:24:08.824Z,14.05
2022-12-24T00:26:37.946Z,11.88
2022-12-24T00:29:06.941Z,14.80
2022-12-24T00:31:35.937Z,15.18
2022-12-24T00:34:05.024Z,18.83
2022-12-24T00:36:34.048Z,13.52
2022-12-24T00:39:03.063Z,11.93
2022-12-24T00:41:33.441Z,11.65
2022-12-24T00:44:05.718Z,12.10
2022-12-24T00:46:36.071Z,9.57
2022-12-24T00:49:06.310Z,7.77
2022-12-24T00:51:37.085Z,8.57
2022-12-24T00:54:06.596Z,11.07
2022-12-24T00:56:37.027Z,14.70
2022-12-24T00:59:05.977Z,12.20
2022-12-24T01:01:36.844Z,9.68
2022-12-24T01:04:23.447Z,12.23
2022-12-24T01:06:52.418Z,11.25
2022-12-24T01:09:21.396Z,11.43
2022-12-24T01:11:51.821Z,15.45
2022-12-24T01:14:20.878Z,10.10
2022-12-24T01:16:49.866Z,16.42
2022-12-24T01:19:18.846Z,15.45
2022-12-24T01:21:47.840Z,14.93
2022-12-24T01:24:17.679Z,9.90
2022-12-24T01:26:46.675Z,10.55
2022-12-24T01:29:17.252Z,10.00
2022-12-24T01:31:46.392Z,11.23
2022-12-24T01:34:15.468Z,14.70
2022-12-24T01:36:44.468Z,10.73
2022-12-24T01:39:13.435Z,8.55
2022-12-24T01:42:01.528Z,9.13
2022-12-24T01:44:42.671Z,9.07
2022-12-24T01:47:16.866Z,10.10
2022-12-24T01:49:49.718Z,6.15
2022-12-24T01:52:21.372Z,13.13
2022-12-24T01:54:54.277Z,7.53
2022-12-24T01:57:26.645Z,10.68
2022-12-24T02:00:02.031Z,8.75
2022-12-24T02:02:34.384Z,9.70
2022-12-24T02:05:06.390Z,10.57
2022-12-24T02:07:35.803Z,8.82
2022-12-24T02:10:06.642Z,8.73
2022-12-24T02:12:38.620Z,12.38
2022-12-24T02:15:13.108Z,9.38
2022-12-24T02:17:51.978Z,11.18
2022-12-24T02:20:46.599Z,13.30
2022-12-24T02:23:40.680Z,12.73
2022-12-24T02:26:22.544Z,16.77
2022-12-24T02:29:18.539Z,14.68
2022-12-24T02:31:54.942Z,14.45
2022-12-24T02:34:30.481Z,9.07
2022-12-24T02:37:05.027Z,10.75
2022-12-24T02:39:41.873Z,14.07
2022-12-24T02:42:16.550Z,14.40
2022-12-24T02:44:49.645Z,10.10
2022-12-24T02:47:23.077Z,17.08
2022-12-24T02:49:52.085Z,12.05
2022-12-24T02:52:31.844Z,14.82
2022-12-24T02:55:04.185Z,19.83
2022-12-24T02:57:44.529Z,20.77
2022-12-24T03:00:17.896Z,17.77
2022-12-24T03:03:07.782Z,13.82
2022-12-24T03:05:45.299Z,16.33
2022-12-24T03:08:18.442Z,14.52
2022-12-24T03:10:54.945Z,15.35
2022-12-24T03:13:25.745Z,18.83
2022-12-24T03:15:54.918Z,14.80
2022-12-24T03:18:28.102Z,20.42
2022-12-24T03:21:03.007Z,16.02
2022-12-24T03:23:32.100Z,25.83
2022-12-24T03:26:03.527Z,16.23
2022-12-24T03:28:32.778Z,27.80
2022-12-24T03:31:05.527Z,26.98
2022-12-24T03:33:36.434Z,21.00
2022-12-24T03:36:06.478Z,20.83
2022-12-24T03:38:35.677Z,16.38
2022-12-24T03:41:05.057Z,20.63
2022-12-24T03:43:34.227Z,23.95
2022-12-24T03:46:07.073Z,25.10
2022-12-24T03:48:37.865Z,22.73
2022-12-24T03:51:07.182Z,29.45
2022-12-24T03:53:36.135Z,27.60
2022-12-24T03:56:05.361Z,25.75
2022-12-24T03:58:34.388Z,27.98
2022-12-24T04:01:03.429Z,22.02
2022-12-24T04:03:32.658Z,27.45
2022-12-24T04:06:05.206Z,22.85
2022-12-24T04:08:34.787Z,24.17
2022-12-24T04:11:09.724Z,33.15
2022-12-24T04:13:39.471Z,24.75
2022-12-24T04:16:10.594Z,20.27
2022-12-24T04:18:40.736Z,20.38
2022-12-24T04:21:11.556Z,23.40
2022-12-24T04:23:42.556Z,18.85
2022-12-24T04:26:13.481Z,30.48
2022-12-24T04:28:43.345Z,36.08
2022-12-24T04:31:13.868Z,24.20
2022-12-24T04:33:43.063Z,21.10
2022-12-24T04:36:17.134Z,21.40
2022-12-24T04:38:47.308Z,29.40
2022-12-24T04:41:23.285Z,29.50
2022-12-24T04:43:54.733Z,27.85
2022-12-24T04:46:26.429Z,24.52
2022-12-24T04:48:56.131Z,30.55
2022-12-24T04:51:27.956Z,31.08
2022-12-24T04:53:58.283Z,29.05
2022-12-24T04:56:29.487Z,22.80
2022-12-24T04:58:59.671Z,26.98
2022-12-24T05:01:30.605Z,28.73
2022-12-24T05:04:00.232Z,22.15
2022-12-24T05:06:32.481Z,15.32
2022-12-24T05:09:01.625Z,20.63
2022-12-24T05:11:30.653Z,24.85
2022-12-24T05:13:59.639Z,14.55
2022-12-24T05:16:29.268Z,22.83
2022-12-24T05:18:58.408Z,24.20
2022-12-24T05:21:27.405Z,22.80
2022-12-24T05:24:15.801Z,30.48
2022-12-24T05:26:47.415Z,23.48
2022-12-24T05:29:16.564Z,21.45
2022-12-24T05:31:46.477Z,28.80
2022-12-24T05:34:17.220Z,28.75
2022-12-24T05:36:46.634Z,27.95
2022-12-24T05:39:19.086Z,22.25
2022-12-24T05:41:48.532Z,21.10
2022-12-24T05:44:18.167Z,21.55
2022-12-24T05:46:47.566Z,27.85
2022-12-24T05:49:16.669Z,24.45
2022-12-24T05:51:46.000Z,24.05
2022-12-24T05:54:15.171Z,28.80
2022-12-24T05:56:45.584Z,28.85
2022-12-24T05:59:14.631Z,38.65
2022-12-24T06:01:47.285Z,34.00
2022-12-24T06:04:16.493Z,31.27
2022-12-24T06:06:45.505Z,32.35
2022-12-24T06:09:15.175Z,30.45
2022-12-24T06:11:45.722Z,29.08
2022-12-24T06:14:14.748Z,28.55
2022-12-24T06:16:43.711Z,32.40
2022-12-24T06:19:12.711Z,31.55
2022-12-24T06:21:41.778Z,31.55
2022-12-24T06:24:10.789Z,36.92
2022-12-24T06:26:39.931Z,37.67
2022-12-24T06:29:10.361Z,29.40
2022-12-24T06:31:39.505Z,31.20
2022-12-24T06:34:08.603Z,32.80
2022-12-24T06:36:37.690Z,34.72
2022-12-24T06:39:06.675Z,37.33
2022-12-24T06:41:35.670Z,25.63
2022-12-24T06:44:04.794Z,33.83
2022-12-24T06:46:35.239Z,37.15
2022-12-24T06:49:04.514Z,34.75
2022-12-24T06:51:33.502Z,37.78
2022-12-24T06:54:02.457Z,40.83
2022-12-24T06:56:31.519Z,36.35
2022-12-24T06:59:05.318Z,34.45
2022-12-24T07:01:36.255Z,32.38
2022-12-24T07:04:05.503Z,40.35
2022-12-24T07:06:34.564Z,36.75
2022-12-24T07:09:03.765Z,40.13
2022-12-24T07:11:32.834Z,40.00
2022-12-24T07:14:01.854Z,32.70
2022-12-24T07:16:31.057Z,33.85
2022-12-24T07:19:01.561Z,28.85
2022-12-24T07:21:30.629Z,39.97
2022-12-24T07:23:59.850Z,40.22
2022-12-24T07:26:28.935Z,33.15
2022-12-24T07:29:01.460Z,37.33
2022-12-24T07:31:30.467Z,30.60
2022-12-24T07:33:59.595Z,27.45
2022-12-24T07:36:30.358Z,39.22
2022-12-24T07:38:59.328Z,42.75
2022-12-24T07:41:28.302Z,24.92
2022-12-24T07:43:57.347Z,39.35
2022-12-24T07:46:26.364Z,30.10
2022-12-24T07:48:55.393Z,42.72
2022-12-24T07:51:24.474Z,28.48
2022-12-24T07:53:54.842Z,36.33
2022-12-24T07:56:23.825Z,28.00
2022-12-24T07:58:53.897Z,37.13
2022-12-24T08:01:22.975Z,36.20
2022-12-24T08:03:54.633Z,41.38
2022-12-24T08:06:24.163Z,38.78
2022-12-24T08:08:54.574Z,42.50
2022-12-24T08:11:23.532Z,35.80
2022-12-24T08:13:52.521Z,30.35
2022-12-24T08:16:21.751Z,28.27
2022-12-24T08:18:50.797Z,24.33
2022-12-24T08:21:19.800Z,26.38
2022-12-24T08:23:48.893Z,37.05
2022-12-24T08:26:19.270Z,27.67
2022-12-24T08:28:48.283Z,32.70
2022-12-24T08:31:17.322Z,20.98
2022-12-24T08:33:46.330Z,23.90
2022-12-24T08:36:15.358Z,21.75
2022-12-24T08:38:44.380Z,21.20
2022-12-24T08:41:13.455Z,22.38
2022-12-24T08:43:43.782Z,19.20
2022-12-24T08:46:12.912Z,18.37
2022-12-24T08:48:41.946Z,18.52
2022-12-24T08:51:12.558Z,21.67
2022-12-24T08:53:41.602Z,14.77
2022-12-24T08:56:11.459Z,18.05
2022-12-24T08:58:40.497Z,16.80
2022-12-24T09:01:16.476Z,16.35
2022-12-24T09:03:46.014Z,12.23
2022-12-24T09:06:16.236Z,17.00
2022-12-24T09:08:45.558Z,16.80
2022-12-24T09:11:16.855Z,11.02
2022-12-24T09:16:16.171Z,10.77
2022-12-24T09:18:45.239Z,17.63
2022-12-24T09:21:17.674Z,11.73
2022-12-24T09:23:48.995Z,11.65
2022-12-24T09:28:48.643Z,13.68
2022-12-24T09:31:20.458Z,16.17
2022-12-24T09:33:52.163Z,16.40
2022-12-24T09:36:22.291Z,20.38
2022-12-24T09:38:51.474Z,20.88
2022-12-24T09:41:34.258Z,20.08
2022-12-24T09:44:21.614Z,20.98
2022-12-24T09:46:53.782Z,16.77
2022-12-24T09:49:27.543Z,27.13
2022-12-24T09:52:02.098Z,21.95
2022-12-24T09:54:33.773Z,28.27
2022-12-24T09:57:08.638Z,31.50
2022-12-24T09:59:43.546Z,25.88
2022-12-24T10:02:17.173Z,31.85
2022-12-24T10:04:48.714Z,29.90
2022-12-24T10:07:31.413Z,40.97
2022-12-24T10:10:07.511Z,28.38
2022-12-24T10:12:49.263Z,23.25
2022-12-24T10:15:28.431Z,27.38
2022-12-24T10:18:13.415Z,28.45
2022-12-24T10:20:47.397Z,35.85
2022-12-24T10:23:23.614Z,30.40
2022-12-24T10:26:04.635Z,34.72
2022-12-24T10:28:43.783Z,33.17
2022-12-24T10:31:13.720Z,39.38
2022-12-24T10:33:46.238Z,27.48
2022-12-24T10:36:19.395Z,35.17
2022-12-24T10:38:48.467Z,34.65
2022-12-24T10:41:18.477Z,38.20
2022-12-24T10:43:49.123Z,36.83
2022-12-24T10:46:20.889Z,42.13
2022-12-24T10:48:55.551Z,36.15
2022-12-24T10:51:31.841Z,40.00
2022-12-24T10:54:07.832Z,43.13
2022-12-24T10:56:42.947Z,31.05
2022-12-24T10:59:26.759Z,39.47
2022-12-24T11:01:57.394Z,38.08
2022-12-24T11:04:30.326Z,34.00
2022-12-24T11:07:01.639Z,34.65
2022-12-24T11:09:33.352Z,46.83
2022-12-24T11:12:08.915Z,39.75
2022-12-24T11:14:41.124Z,39.65
2022-12-24T11:17:21.980Z,38.83
2022-12-24T11:19:52.605Z,52.22
2022-12-24T11:22:25.644Z,47.50
2022-12-24T11:25:02.951Z,51.85
2022-12-24T11:27:35.797Z,43.03
2022-12-24T11:30:22.327Z,44.58
2022-12-24T11:33:12.323Z,48.72
2022-12-24T11:35:47.831Z,44.63
2022-12-24T11:38:22.489Z,43.30
2022-12-24T11:40:59.866Z,38.53
2022-12-24T11:43:44.489Z,40.17
2022-12-24T11:46:20.271Z,33.45
2022-12-24T11:48:50.055Z,44.08
2022-12-24T11:51:28.679Z,36.15
2022-12-24T11:54:07.404Z,36.75
2022-12-24T11:56:42.010Z,32.35
2022-12-24T11:59:19.214Z,39.38
2022-12-24T12:01:56.796Z,39.60
2022-12-24T12:04:29.964Z,38.03
2022-12-24T12:07:08.258Z,40.78
2022-12-24T12:09:45.377Z,33.53
2022-12-24T12:12:17.123Z,46.22
2022-12-24T12:14:51.470Z,52.88
2022-12-24T12:17:31.161Z,44.80
2022-12-24T12:20:05.862Z,44.80
2022-12-24T12:22:43.460Z,48.42
2022-12-24T12:25:22.336Z,38.45
2022-12-24T12:27:54.174Z,44.55
2022-12-24T12:30:24.481Z,41.22
2022-12-24T12:32:59.855Z,26.00
2022-12-24T12:35:33.133Z,21.70
2022-12-24T12:38:07.118Z,29.95
2022-12-24T12:41:00.324Z,27.15
2022-12-24T12:43:50.278Z,32.30
2022-12-24T12:46:25.285Z,28.52
2022-12-24T12:49:11.967Z,36.47
2022-12-24T12:51:51.424Z,32.50
2022-12-24T12:54:42.398Z,30.48
2022-12-24T12:57:18.256Z,33.25
2022-12-24T12:59:53.044Z,41.42
2022-12-24T13:02:46.771Z,35.95
2022-12-24T13:05:47.493Z,21.58
2022-12-24T13:08:38.629Z,28.42
2022-12-24T13:11:20.482Z,31.10
2022-12-24T13:14:13.096Z,32.60
2022-12-24T13:17:10.066Z,30.58
2022-12-24T13:19:54.626Z,29.17
2022-12-24T13:22:24.412Z,34.15
2022-12-24T13:24:55.621Z,38.95
2022-12-24T13:27:29.364Z,28.02
2022-12-24T13:30:07.233Z,28.73
2022-12-24T13:32:49.390Z,10.37
2022-12-24T13:35:38.236Z,7.70
2022-12-24T13:38:34.197Z,4.53
2022-12-24T13:41:50.842Z,3.95
2022-12-24T13:44:34.779Z,3.40
2022-12-24T13:47:31.682Z,1.35
2022-12-24T13:50:23.772Z,1.30
2022-12-24T13:52:54.500Z,4.13
2022-12-24T13:55:24.188Z,5.63
2022-12-24T13:57:59.777Z,3.15
2022-12-24T14:00:54.854Z,6.20
2022-12-24T14:03:29.240Z,9.15
2022-12-24T14:06:02.395Z,7.00
2022-12-24T14:08:39.857Z,7.63
2022-12-24T14:11:13.829Z,8.55
2022-12-24T14:13:55.278Z,3.13
2022-12-24T14:16:27.629Z,6.72
2022-12-24T14:19:02.404Z,5.45
2022-12-24T14:21:35.874Z,5.68
2022-12-24T14:24:09.111Z,10.93
2022-12-24T14:26:47.067Z,9.98
2022-12-24T14:29:25.030Z,7.03
2022-12-24T14:31:57.477Z,9.98
2022-12-24T14:34:27.058Z,14.32
2022-12-24T14:36:57.550Z,7.78
2022-12-24T14:39:30.695Z,5.43
2022-12-24T14:42:10.441Z,9.18
2022-12-24T14:44:48.413Z,9.82
2022-12-24T14:47:30.477Z,12.93
2022-12-24T14:50:33.628Z,19.35
2022-12-24T14:53:19.037Z,9.85
2022-12-24T14:55:49.939Z,12.45
2022-12-24T14:58:22.962Z,23.27
2022-12-24T15:00:53.726Z,17.48
2022-12-24T15:03:25.710Z,20.88
2022-12-24T15:05:58.406Z,22.48
2022-12-24T15:08:33.880Z,18.45
2022-12-24T15:11:06.280Z,16.85
2022-12-24T15:13:38.611Z,132.80
2022-12-24T15:16:11.195Z,91.57
2022-12-24T15:18:47.516Z,95.68
2022-12-24T15:21:20.106Z,56.35
2022-12-24T15:23:50.764Z,73.93
2022-12-24T15:26:26.596Z,86.05
2022-12-24T15:29:02.633Z,85.32
2022-12-24T15:31:33.394Z,43.22
2022-12-24T15:34:03.823Z,66.10
2022-12-24T15:36:34.650Z,45.90
2022-12-24T15:39:06.506Z,56.50
2022-12-24T15:42:00.298Z,36.17
2022-12-24T15:44:31.075Z,29.48
2022-12-24T15:47:01.561Z,35.85
2022-12-24T15:49:34.248Z,32.47
2022-12-24T15:52:09.236Z,35.85
2022-12-24T15:54:38.493Z,42.72
2022-12-24T15:57:16.005Z,29.45
2022-12-24T15:59:45.208Z,24.67
2022-12-24T16:02:34.151Z,15.32
2022-12-24T16:05:33.710Z,14.65
2022-12-24T16:08:25.111Z,12.85
2022-12-24T16:11:08.970Z,5.25
2022-12-24T16:13:41.189Z,8.57
2022-12-24T16:16:15.932Z,4.50
2022-12-24T16:18:53.490Z,4.68
2022-12-24T16:21:26.839Z,3.22
2022-12-24T16:23:57.852Z,4.55
2022-12-24T16:26:26.830Z,4.72
2022-12-24T16:28:56.702Z,4.65
2022-12-24T16:31:33.378Z,5.50
2022-12-24T16:34:03.764Z,1.77
2022-12-24T16:36:34.366Z,1.23
2022-12-24T16:39:21.158Z,2.13
2022-12-24T16:42:07.641Z,4.18
2022-12-24T16:44:36.838Z,3.45
2022-12-24T16:47:07.998Z,3.55
2022-12-24T16:49:38.828Z,4.18
2022-12-24T16:52:28.573Z,3.00
2022-12-24T16:54:58.359Z,3.22
2022-12-24T16:57:27.695Z,4.38
2022-12-24T16:59:56.902Z,2.25
2022-12-24T17:02:26.239Z,5.32
2022-12-24T17:04:56.378Z,11.60
2022-12-24T17:07:26.879Z,8.88
2022-12-24T17:09:55.967Z,5.30
2022-12-24T17:12:25.018Z,2.60
2022-12-24T17:14:54.066Z,4.15
2022-12-24T17:17:26.258Z,1.77
2022-12-24T17:19:55.926Z,2.35
2022-12-24T17:22:27.813Z,5.65
2022-12-24T17:24:57.744Z,5.43
2022-12-24T17:27:27.049Z,8.18
2022-12-24T17:29:56.052Z,16.30
2022-12-24T17:32:27.297Z,9.75
2022-12-24T17:34:56.324Z,7.68
2022-12-24T17:37:26.759Z,10.05
2022-12-24T17:39:55.889Z,4.90
2022-12-24T17:42:24.936Z,1.48
2022-12-24T17:44:53.927Z,8.95
2022-12-24T17:47:22.964Z,8.68
2022-12-24T17:49:51.971Z,9.00
2022-12-24T17:52:21.241Z,21.67
2022-12-24T17:54:51.676Z,2.05
2022-12-24T17:57:20.645Z,3.13
2022-12-24T17:59:49.645Z,4.70
2022-12-24T18:02:18.757Z,3.65
2022-12-24T18:04:48.168Z,5.10
2022-12-24T18:07:17.281Z,7.13
2022-12-24T18:09:46.463Z,3.45
2022-12-24T18:12:16.882Z,2.80
2022-12-24T18:14:45.886Z,3.97
2022-12-24T18:17:14.956Z,3.80
2022-12-24T18:19:43.947Z,4.82
2022-12-24T18:22:13.085Z,2.65
2022-12-24T18:24:42.195Z,2.28
2022-12-24T18:27:11.206Z,6.03
2022-12-24T18:29:42.495Z,3.80
2022-12-24T18:34:41.816Z,3.13
2022-12-24T18:37:10.806Z,5.00
2022-12-24T18:39:40.060Z,3.50
2022-12-24T18:42:14.345Z,3.20
2022-12-24T18:44:45.423Z,5.60
2022-12-24T18:47:14.459Z,7.15
2022-12-24T18:49:43.520Z,5.47
2022-12-24T18:52:15.372Z,8.60
2022-12-24T18:54:49.535Z,8.23
2022-12-24T18:57:18.571Z,9.10
2022-12-24T18:59:49.037Z,6.45
2022-12-24T19:02:18.133Z,6.60
2022-12-24T19:04:47.166Z,6.43
2022-12-24T19:07:16.129Z,8.00
2022-12-24T19:09:48.390Z,9.35
2022-12-24T19:12:17.667Z,13.80
2022-12-24T19:14:48.186Z,8.43
2022-12-24T19:17:17.238Z,9.70
2022-12-24T19:19:46.318Z,9.55
2022-12-24T19:22:15.374Z,68.18
2022-12-24T19:24:44.500Z,10.15
2022-12-24T19:27:13.509Z,7.88
2022-12-24T19:29:42.701Z,11.88
2022-12-24T19:32:13.125Z,11.20
2022-12-24T19:34:42.523Z,12.40
2022-12-24T19:37:11.636Z,64.30
2022-12-24T19:39:40.625Z,7.70
2022-12-24T19:42:09.612Z,11.15
2022-12-24T19:44:38.605Z,10.65
2022-12-24T19:47:07.623Z,27.45
2022-12-24T19:49:38.051Z,175.82
2022-12-24T19:52:07.360Z,29.30
2022-12-24T19:54:37.492Z,50.90
2022-12-24T19:57:06.561Z,20.25
2022-12-24T19:59:35.819Z,32.22
2022-12-24T20:02:05.129Z,20.30
2022-12-24T20:04:34.282Z,17.42
2022-12-24T20:07:04.689Z,12.32
2022-12-24T20:09:34.058Z,15.23
2022-12-24T20:12:03.117Z,14.30
2022-12-24T20:14:32.168Z,13.25
2022-12-24T20:17:01.221Z,13.57
2022-12-24T20:19:30.308Z,27.05
2022-12-24T20:21:59.271Z,15.20
2022-12-24T20:24:30.102Z,17.13
2022-12-24T20:26:59.363Z,17.52
2022-12-24T20:29:28.351Z,21.48
2022-12-24T20:31:57.366Z,19.58
2022-12-24T20:34:26.356Z,14.90
2022-12-24T20:36:55.357Z,11.95
2022-12-24T20:39:24.434Z,13.07
2022-12-24T20:41:54.848Z,13.98
2022-12-24T20:44:23.840Z,12.17
2022-12-24T20:46:53.254Z,16.25
2022-12-24T20:49:22.273Z,15.25
2022-12-24T20:51:51.252Z,19.65
2022-12-24T20:54:21.083Z,20.15
2022-12-24T20:56:58.058Z,10.52
2022-12-24T20:59:29.488Z,13.32
2022-12-24T21:01:58.782Z,20.50
2022-12-24T21:04:27.914Z,14.40
2022-12-24T21:06:56.916Z,13.32
2022-12-24T21:09:26.185Z,19.73
2022-12-24T21:12:12.619Z,17.60
2022-12-24T21:14:43.109Z,17.08
2022-12-24T21:17:15.806Z,25.80
2022-12-24T21:19:45.128Z,21.00
2022-12-24T21:22:14.164Z,17.48
2022-12-24T21:24:43.231Z,21.35
2022-12-24T21:27:12.276Z,20.95
2022-12-24T21:29:42.615Z,20.30
2022-12-24T21:32:11.632Z,20.60
2022-12-24T21:34:41.774Z,18.67
2022-12-24T21:37:11.055Z,25.03
2022-12-24T21:39:40.697Z,22.92
2022-12-24T21:42:10.255Z,26.02
2022-12-24T21:44:39.658Z,30.85
2022-12-24T21:47:11.086Z,29.10
2022-12-24T21:50:12.518Z,26.75
2022-12-24T21:52:42.060Z,28.23
2022-12-24T21:55:10.237Z,23.98
2022-12-24T21:57:54.547Z,41.35
2022-12-24T22:00:24.443Z,57.85
2022-12-24T22:02:57.121Z,34.80
2022-12-24T22:05:27.103Z,30.85
2022-12-24T22:08:14.264Z,45.60
2022-12-24T22:11:05.661Z,25.60
2022-12-24T22:13:34.861Z,25.65
2022-12-24T22:16:03.815Z,23.60
2022-12-24T22:18:34.173Z,27.17
2022-12-24T22:21:03.723Z,25.53
2022-12-24T22:23:35.910Z,27.42
2022-12-24T22:26:12.725Z,26.50
2022-12-24T22:28:41.779Z,43.38
2022-12-24T22:31:18.351Z,27.52
2022-12-24T22:33:48.942Z,27.92
2022-12-24T22:36:18.320Z,34.80
2022-12-24T22:38:47.438Z,31.17
2022-12-24T22:41:16.559Z,28.77
2022-12-24T22:43:45.766Z,33.35
2022-12-24T22:46:15.667Z,34.17
2022-12-24T22:48:46.173Z,37.42
2022-12-24T22:51:18.928Z,30.48
2022-12-24T22:53:48.198Z,27.75
2022-12-24T22:56:20.944Z,35.10
2022-12-24T22:58:53.976Z,30.98
2022-12-24T23:01:33.448Z,37.33
2022-12-24T23:04:02.991Z,29.13
2022-12-24T23:06:35.237Z,31.90
2022-12-24T23:09:05.927Z,28.00
2022-12-24T23:11:35.173Z,26.33
2022-12-24T23:14:21.645Z,22.45
2022-12-24T23:16:51.138Z,30.23
2022-12-24T23:19:20.160Z,19.08
2022-12-24T23:21:50.509Z,17.55
2022-12-24T23:24:19.517Z,15.77
2022-12-24T23:26:48.516Z,14.65
2022-12-24T23:29:17.880Z,16.38
2022-12-24T23:31:46.868Z,17.10
2022-12-24T23:34:15.975Z,17.08
2022-12-24T23:36:45.013Z,25.63
2022-12-24T23:39:15.382Z,22.27
2022-12-24T23:41:44.465Z,21.70
2022-12-24T23:44:13.557Z,23.90
2022-12-24T23:46:42.662Z,18.42
2022-12-24T23:49:15.234Z,22.95
2022-12-24T23:51:44.225Z,22.83
2022-12-24T23:54:14.613Z,22.58
2022-12-24T23:56:43.706Z,25.33
2022-12-24T23:59:15.623Z,23.60
